Cullman, AL

10:00 PM CDT on March 22, 2017 (GMT -0500)
Cullman

Weather History for K3A1 - February, 2013

Change the Weather History Date:

Tuesday, February 19, 2013

  Actual Average (KHSV) Record (KHSV)
Temperature  
Mean Temperature 41 °F -  
Max Temperature 51 °F 56 °F 75 °F (1939)
Min Temperature 30 °F 35 °F 2 °F (1958)
Degree Days  
Heating Degree Days 24    
Moisture  
Dew Point 32 °F    
Average Humidity 66    
Maximum Humidity 99    
Minimum Humidity 33    
Precipitation  
Precipitation 0.40 in - - ()
Sea Level Pressure  
Sea Level Pressure 30.11 in    
Wind  
Wind Speed 7 mph (WNW)    
Max Wind Speed 15 mph    
Max Gust Speed 24 mph    
Visibility 9 miles    
Events Rain    
Averages and records for this station are not official NWS values.
T = Trace of Precipitation, MM = Missing Value Source: NWS Daily Summary

Daily Weather History Graph

Daily Weather History Graph

Search for Another Location

Airport or City:

Trip Planner

Search our weather history database for the weather conditions in past years. The results will help you decide how hot, cold, wet, or windy it might be!

Date:

Astronomy

Feb. 19, 2013 Rise Set
Actual Time 6:27 AM CST 5:35 PM CST
Civil Twilight 6:02 AM CST 6:00 PM CST
Nautical Twilight 5:33 AM CST 6:29 PM CST
Astronomical Twilight 5:04 AM CST 6:58 PM CST
Moon 12:14 PM CST (2/19) 1:51 AM CST (2/19)
Length of Visible Light 11h 58m
Length of Day
11h 07m
Waxing Gibbous, 67% of the Moon is Illuminated
Feb 19
Waxing Gibbous
Feb 25
Full
Mar 4
Last Quarter
Mar 11
New
Mar 19
First Quarter

Hourly Weather History & Observations

Time (CST) Temp. Windchill Dew Point Humidity Pressure Visibility Wind Dir Wind Speed Gust Speed Precip Events Conditions
12:15 AM 44.4 °F - 42.8 °F 94% 29.99 in 2.5 mi Calm Calm - 0.09 in Rain Heavy Rain
12:35 AM 44.2 °F 40.3 °F 43.3 °F 97% 30.04 in 3.0 mi SW 6.9 mph - 0.21 in Rain Rain
12:55 AM 44.6 °F 39.7 °F 43.2 °F 95% 30.04 in 10.0 mi SSW 9.2 mph - 0.25 in Rain Heavy Rain
1:15 AM 44.8 °F 39.0 °F 43.2 °F 94% 30.02 in 10.0 mi South 11.5 mph - 0.02 in Rain Rain
1:35 AM 45.1 °F 39.9 °F 43.7 °F 95% 30.01 in 7.0 mi South 10.4 mph - 0.07 in Rain Light Rain
1:55 AM 45.3 °F 41.1 °F 44.1 °F 95% 30.00 in 10.0 mi South 8.1 mph - 0.09 in Rain Light Rain
2:15 AM 45.1 °F 40.8 °F 44.1 °F 96% 29.99 in 10.0 mi SSE 8.1 mph - N/A   Drizzle
2:35 AM 45.1 °F 40.3 °F 44.1 °F 96% 29.98 in 10.0 mi SSE 9.2 mph - 0.01 in Rain Rain
2:55 AM 45.3 °F 41.6 °F 44.2 °F 96% 29.97 in 10.0 mi SSE 6.9 mph - 0.02 in Rain Rain
3:15 AM 45.1 °F 39.5 °F 44.2 °F 97% 29.94 in 7.0 mi SSE 11.5 mph 19.6 mph 0.01 in Rain Rain
3:35 AM 45.0 °F 39.7 °F 44.2 °F 97% 29.95 in 10.0 mi SSE 10.4 mph - 0.01 in   Mostly Cloudy
3:55 AM 45.0 °F 40.6 °F 44.2 °F 97% 29.95 in 10.0 mi South 8.1 mph - 0.01 in   Mostly Cloudy
4:15 AM 45.0 °F 40.6 °F 44.6 °F 99% 29.96 in 10.0 mi South 8.1 mph - N/A   Overcast
4:35 AM 45.5 °F 40.3 °F 45.0 °F 98% 29.97 in 10.0 mi SSW 10.4 mph - N/A   Light Drizzle
4:55 AM 45.9 °F 43.6 °F 45.5 °F 99% 29.98 in 4.0 mi SW 4.6 mph - 0.01 in   Heavy Drizzle
5:15 AM 45.9 °F 44.6 °F 45.5 °F 99% 29.99 in 2.5 mi SW 3.5 mph - 0.01 in   Heavy Drizzle
5:35 AM 45.9 °F - 45.5 °F 99% 30.00 in 2.5 mi Calm Calm - 0.02 in   Drizzle
5:55 AM 46.2 °F 45.0 °F 45.7 °F 98% 30.01 in 2.5 mi SW 3.5 mph - 0.02 in   Light Drizzle
6:15 AM 46.4 °F 42.4 °F 46.2 °F 99% 30.02 in 3.0 mi West 8.1 mph - N/A Rain Rain
6:35 AM 46.0 °F 41.0 °F 45.5 °F 98% 30.04 in 3.0 mi NW 10.4 mph 16.1 mph N/A   Overcast
6:55 AM 44.1 °F 39.0 °F 43.2 °F 97% 30.06 in 7.0 mi NW 9.2 mph 16.1 mph N/A   Overcast
7:15 AM 42.8 °F 38.6 °F 41.0 °F 93% 30.07 in 10.0 mi NW 6.9 mph - N/A   Overcast
7:35 AM 42.3 °F 36.3 °F 40.3 °F 93% 30.09 in 10.0 mi WNW 10.4 mph - N/A   Overcast
7:55 AM 41.0 °F 33.9 °F 37.9 °F 89% 30.11 in 10.0 mi WNW 12.7 mph 23.0 mph N/A   Overcast
8:15 AM 41.0 °F 36.4 °F 37.0 °F 86% 30.11 in 10.0 mi WNW 6.9 mph 16.1 mph N/A   Overcast
8:35 AM 41.7 °F 36.7 °F 36.9 °F 83% 30.12 in 10.0 mi NW 8.1 mph - N/A   Scattered Clouds
8:55 AM 43.3 °F 38.1 °F 36.7 °F 77% 30.12 in 10.0 mi NNW 9.2 mph - N/A   Clear
9:15 AM 44.4 °F 40.5 °F 36.9 °F 75% 30.12 in 10.0 mi WNW 6.9 mph - N/A   Scattered Clouds
9:35 AM 45.3 °F 40.1 °F 36.7 °F 72% 30.13 in 10.0 mi WNW 10.4 mph 16.1 mph N/A   Scattered Clouds
9:55 AM 46.0 °F 40.2 °F 36.5 °F 69% 30.14 in 10.0 mi WNW 12.7 mph 17.3 mph N/A   Clear
10:15 AM 46.2 °F 40.5 °F 35.2 °F 66% 30.15 in 10.0 mi WNW 12.7 mph 18.4 mph N/A   Clear
10:35 AM 46.9 °F - 32.5 °F 57% 30.15 in 10.0 mi NNW 12.7 mph 19.6 mph N/A   Clear
10:55 AM 47.5 °F - 31.1 °F 53% 30.16 in 10.0 mi NW 5.8 mph 17.3 mph N/A   Clear
11:15 AM 48.4 °F - 31.6 °F 52% 30.15 in 10.0 mi WNW 10.4 mph 17.3 mph N/A   Clear
11:35 AM 48.9 °F - 30.2 °F 48% 30.15 in 10.0 mi NW 8.1 mph - N/A   Clear
11:55 AM 49.6 °F - 28.6 °F 44% 30.15 in 10.0 mi West 12.7 mph 17.3 mph N/A   Clear
12:35 PM 50.7 °F - 27.1 °F 40% 30.14 in 10.0 mi West 11.5 mph 23.0 mph N/A   Clear
12:55 PM 50.7 °F - 25.3 °F 37% 30.14 in 10.0 mi NW 11.5 mph 24.2 mph N/A   Clear
1:15 PM 50.7 °F - 23.9 °F 35% 30.13 in 10.0 mi WNW 13.8 mph 21.9 mph N/A   Clear
1:35 PM 50.9 °F - 22.6 °F 33% 30.13 in 10.0 mi NW 8.1 mph 23.0 mph N/A   Clear
1:55 PM 51.4 °F - 24.1 °F 34% 30.14 in 10.0 mi WNW 11.5 mph 19.6 mph N/A   Clear
2:15 PM 51.3 °F - 25.3 °F 37% 30.14 in 10.0 mi NW 11.5 mph 19.6 mph N/A   Clear
2:35 PM 51.1 °F - 24.1 °F 35% 30.14 in 10.0 mi WNW 15.0 mph 23.0 mph N/A   Clear
2:55 PM 50.7 °F - 22.5 °F 33% 30.15 in 10.0 mi NW 12.7 mph 18.4 mph N/A   Clear
3:15 PM 50.5 °F - 22.5 °F 33% 30.15 in 10.0 mi WNW 11.5 mph 19.6 mph N/A   Clear
3:35 PM 50.2 °F - 22.5 °F 34% 30.15 in 10.0 mi NNW 10.4 mph 18.4 mph N/A   Clear
3:55 PM 50.2 °F - 22.6 °F 34% 30.16 in 10.0 mi WNW 11.5 mph 19.6 mph N/A   Clear
4:15 PM 49.8 °F - 22.3 °F 34% 30.16 in 10.0 mi NW 6.9 mph 16.1 mph N/A   Clear
4:35 PM 49.5 °F - 22.5 °F 35% 30.16 in 10.0 mi NW 8.1 mph 16.1 mph N/A   Clear
4:55 PM 48.6 °F - 20.8 °F 34% 30.17 in 10.0 mi WNW 5.8 mph - N/A   Clear
5:15 PM 47.1 °F - 19.6 °F 34% 30.18 in 10.0 mi NW 6.9 mph - N/A   Clear
5:35 PM 45.1 °F 42.0 °F 18.7 °F 35% 30.19 in 10.0 mi WNW 5.8 mph - N/A   Clear
6:35 PM 41.0 °F - 17.4 °F 39% 30.19 in 10.0 mi Calm Calm - N/A   Clear
6:55 PM 40.1 °F - 17.8 °F 41% 30.19 in 10.0 mi Calm Calm - N/A   Clear
7:15 PM 39.9 °F - 18.0 °F 41% 30.19 in 10.0 mi Calm Calm - N/A   Clear
7:55 PM 38.7 °F - 18.3 °F 44% 30.19 in 10.0 mi Calm Calm - N/A   Clear
8:15 PM 37.8 °F - 18.5 °F 46% 30.20 in 10.0 mi Calm Calm - N/A   Clear
8:35 PM 37.2 °F - 18.9 °F 48% 30.22 in 10.0 mi Calm Calm - N/A   Clear
8:55 PM 37.2 °F 34.7 °F 19.4 °F 49% 30.23 in 10.0 mi WNW 3.5 mph - N/A   Clear
9:15 PM 37.2 °F - 19.9 °F 50% 30.25 in 10.0 mi Calm Calm - N/A   Clear
9:35 PM 36.7 °F 34.1 °F 20.1 °F 51% 30.24 in 10.0 mi NW 3.5 mph - N/A   Clear
9:55 PM 36.1 °F - 20.3 °F 53% 30.24 in 10.0 mi Calm Calm - N/A   Clear
10:15 PM 35.6 °F - 20.3 °F 54% 30.24 in 10.0 mi Calm Calm - N/A   Clear
10:35 PM 34.9 °F - 20.1 °F 55% 30.25 in 10.0 mi Calm Calm - N/A   Clear
10:55 PM 33.3 °F - 20.5 °F 59% 30.25 in 10.0 mi Calm Calm - N/A   Clear
11:15 PM 31.6 °F - 21.7 °F 67% 30.25 in 10.0 mi Calm Calm - N/A   Clear
11:35 PM 30.2 °F - 23.4 °F 76% 30.25 in 10.0 mi Calm Calm - N/A   Clear